Estación Meteorológica Peña el Pijo (Robertgarden) [ 09/18/21 11:42:37 CEST ]

Fecha Hora Presion(HPa) Temp (°C) Humedad % Rocio (°C) Viento ( m/s) Direccion Lluvia 1Hora(mm) Lluvia 24H(mm) LLuvia Total(mm)
2021-Apr-21 01:09:42 1003.300 10.9 63 4.1 - N     89.61
2021-Apr-21 02:09:11 1003.000 9.9 69 4.5 - N     89.61
2021-Apr-21 03:09:52 1002.300 9.6 73 5.0 - N     89.61
2021-Apr-21 04:10:09 1002.100 9.3 76 5.2 - N     89.61
2021-Apr-21 05:09:46 1001.600 8.9 77 5.0 - N     89.61
2021-Apr-21 06:10:10 1001.700 8.6 79 5.1 - N     89.61
2021-Apr-21 07:09:19 1001.500 8.8 80 5.5 - N     89.61
2021-Apr-21 08:09:37 1002.100 9.1 80 5.8 - N     89.61
2021-Apr-21 09:09:45 1002.500 11.0 76 6.9 - N     89.61
2021-Apr-21 10:09:26 1002.500 13.4 58 5.3 - N     89.61
2021-Apr-21 11:09:13 1002.400 17.6 44 5.1 - N     89.61
2021-Apr-21 12:09:36 1002.500 18.6 40 4.7 - N     89.61
2021-Apr-21 13:09:38 1002.200 19.3 40 5.4 - N     89.61
2021-Apr-21 14:10:06 1002.000 18.9 38 4.2 - N     89.61
2021-Apr-21 15:09:47 1001.800 18.4 39 4.2 - N     89.61
2021-Apr-21 16:09:36 1001.300 18.5 37 3.4 - N     89.61
2021-Apr-21 17:09:23 1001.200 17.6 39 3.4 - N     89.61
2021-Apr-21 18:10:17 1001.300 15.8 44 3.5 - N     89.61
2021-Apr-21 19:09:27 1002.000 15.1 39 1.2 - N     89.61
2021-Apr-21 20:09:38 1001.700 14.6 43 2.1 - N     89.61
2021-Apr-21 21:09:39 1002.600 13.3 50 3.1 - N     89.61
2021-Apr-21 22:09:29 1003.300 12.5 56 3.9 - N     89.61
2021-Apr-21 23:09:45 1003.700 12.1 61 4.8 - N     89.61

Temperatura Máxima:19°    Temperatura Mínima:
Presión Máxima:1003.700 Hpa    Presión Mínima:1001.200 Hpa


Volver